Time;durP1;ratioP1;P1;durP2;ratioP2;P2;SDS_P1;SDS_P2;PMS_P1;PMS_P2;Temp;Humidity;BMP_temperature;BMP_pressure;BME280_temperature;BME280_humidity;BME280_pressure;Samples;Min_cycle;Max_cycle;Signal;HPM_P1;HPM_P2
2021/07/02 00:00:22;;;;;;;5.90;3.40;;;;;;;16.77;100.00;100803.44;5033667;28;20439;-69
2021/07/02 00:02:49;;;;;;;6.80;3.53;;;;;;;16.82;100.00;100803.22;5033615;28;20443;-70
2021/07/02 00:05:16;;;;;;;5.50;3.33;;;;;;;16.85;100.00;100797.06;5033571;28;20458;-70
2021/07/02 00:07:43;;;;;;;4.57;2.90;;;;;;;16.88;100.00;100792.88;5033190;28;20862;-70
2021/07/02 00:10:12;;;;;;;14.27;3.33;;;;;;;16.89;100.00;100795.25;5033788;28;20439;-69
2021/07/02 00:12:38;;;;;;;7.00;3.10;;;;;;;16.93;100.00;100791.84;5033483;28;20454;-70
2021/07/02 00:15:06;;;;;;;4.80;3.33;;;;;;;16.94;100.00;100782.50;5033378;28;20502;-70
2021/07/02 00:17:32;;;;;;;4.80;2.50;;;;;;;16.94;100.00;100801.66;5033455;28;20443;-68
2021/07/02 00:19:59;;;;;;;7.20;2.97;;;;;;;16.96;100.00;100793.91;5033414;28;20448;-69
2021/07/02 00:22:25;;;;;;;10.27;4.73;;;;;;;16.93;100.00;100789.91;5033419;28;20459;-69
2021/07/02 00:24:52;;;;;;;5.27;2.43;;;;;;;16.99;100.00;100798.69;5033273;28;20467;-70
2021/07/02 00:27:20;;;;;;;6.77;3.10;;;;;;;17.02;100.00;100798.03;5033352;28;20450;-70
2021/07/02 00:29:46;;;;;;;10.90;3.87;;;;;;;17.03;100.00;100799.63;5033276;28;20439;-70
2021/07/02 00:32:12;;;;;;;9.53;3.97;;;;;;;17.04;100.00;100802.00;5033305;28;20443;-68
2021/07/02 00:34:40;;;;;;;6.70;2.80;;;;;;;17.07;100.00;100800.53;5033135;28;20493;-70
2021/07/02 00:37:06;;;;;;;8.03;3.00;;;;;;;17.09;100.00;100795.53;5033236;28;20450;-70
2021/07/02 00:39:33;;;;;;;5.43;2.70;;;;;;;17.07;100.00;100797.81;5033233;28;20443;-70
2021/07/02 00:41:59;;;;;;;5.03;2.93;;;;;;;17.07;100.00;100795.06;5033196;28;20832;-69
2021/07/02 00:44:41;;;;;;;6.50;2.93;;;;;;;17.07;100.00;100800.53;5033147;28;20463;-68
2021/07/02 00:47:07;;;;;;;7.93;3.17;;;;;;;17.05;100.00;100798.16;5033111;28;20435;-70
2021/07/02 00:49:34;;;;;;;9.00;3.77;;;;;;;17.04;100.00;100799.28;5033087;28;20443;-69
2021/07/02 00:52:01;;;;;;;7.90;3.63;;;;;;;17.06;100.00;100798.94;5032902;28;20447;-70
2021/07/02 00:54:27;;;;;;;7.50;4.10;;;;;;;17.09;100.00;100803.75;5032881;28;20470;-69
2021/07/02 00:56:54;;;;;;;10.60;3.40;;;;;;;17.09;100.00;100799.06;5032672;28;20975;-70
2021/07/02 00:59:20;;;;;;;6.10;3.80;;;;;;;17.10;100.00;100800.66;5033068;28;20443;-70
2021/07/02 01:01:49;;;;;;;7.87;3.73;;;;;;;17.12;100.00;100797.56;5032959;28;20447;-70
2021/07/02 01:04:15;;;;;;;9.47;4.03;;;;;;;17.13;100.00;100801.91;5032904;28;20481;-71
2021/07/02 01:06:42;;;;;;;9.33;4.80;;;;;;;17.12;100.00;100792.09;5033027;28;20443;-73
2021/07/02 01:09:09;;;;;;;4.97;3.07;;;;;;;17.11;100.00;100791.31;5032665;28;20941;-73
2021/07/02 01:11:35;;;;;;;5.93;3.10;;;;;;;17.13;100.00;100793.69;5033012;28;20541;-73
2021/07/02 01:14:02;;;;;;;13.93;5.13;;;;;;;17.11;100.00;100788.56;5032531;28;20466;-70
2021/07/02 01:16:28;;;;;;;4.53;2.57;;;;;;;17.15;100.00;100786.75;5032541;28;21003;-68
2021/07/02 01:18:56;;;;;;;6.80;2.60;;;;;;;17.19;100.00;100789.63;5034810;28;20447;-70
2021/07/02 01:21:24;;;;;;;9.20;3.37;;;;;;;17.22;100.00;100794.41;5036907;28;20445;-69
2021/07/02 01:23:50;;;;;;;6.30;3.00;;;;;;;17.26;100.00;100789.03;5036517;28;20462;-70
2021/07/02 01:26:17;;;;;;;6.53;3.70;;;;;;;17.27;100.00;100785.97;5036266;28;20937;-70
2021/07/02 01:28:44;;;;;;;10.77;4.87;;;;;;;17.29;100.00;100778.22;5036559;28;20443;-70
2021/07/02 01:31:10;;;;;;;6.67;3.70;;;;;;;17.31;100.00;100780.59;5036531;28;20481;-69
2021/07/02 01:33:37;;;;;;;7.13;3.80;;;;;;;17.33;100.00;100778.31;5036374;28;20446;-70
2021/07/02 01:36:06;;;;;;;11.50;3.77;;;;;;;17.34;100.00;100782.66;5036083;28;20829;-68
2021/07/02 01:38:34;;;;;;;7.70;4.03;;;;;;;17.35;100.00;100789.72;5036233;28;20442;-70
2021/07/02 01:41:01;;;;;;;13.83;5.20;;;;;;;17.35;100.00;100779.59;5036301;28;20454;-69
2021/07/02 01:43:27;;;;;;;6.43;3.43;;;;;;;17.34;100.00;100782.66;5036438;28;20443;-70
2021/07/02 01:45:54;;;;;;;8.20;4.13;;;;;;;17.35;100.00;100789.72;5036396;28;20439;-70
2021/07/02 01:48:21;;;;;;;6.53;3.40;;;;;;;17.34;100.00;100786.19;5036164;28;20450;-69
2021/07/02 01:50:47;;;;;;;9.20;3.70;;;;;;;17.37;100.00;100781.97;5036106;28;20455;-69
2021/07/02 01:53:14;;;;;;;7.03;3.00;;;;;;;17.35;100.00;100782.34;5036100;28;20451;-70
2021/07/02 01:55:41;;;;;;;6.00;2.90;;;;;;;17.37;100.00;100790.19;5037074;28;20491;-70
2021/07/02 01:58:08;;;;;;;6.20;3.60;;;;;;;17.37;100.00;100793.72;5035704;28;20944;-69
2021/07/02 02:00:35;;;;;;;7.97;3.67;;;;;;;17.39;100.00;100780.47;5036204;28;20443;-68
2021/07/02 02:03:01;;;;;;;5.00;3.37;;;;;;;17.42;100.00;100791.91;5035891;28;20455;-69
2021/07/02 02:05:28;;;;;;;6.13;3.53;;;;;;;17.41;100.00;100796.59;5035804;28;20562;-69
2021/07/02 02:07:54;;;;;;;7.90;3.57;;;;;;;17.39;100.00;100790.66;5035508;28;20942;-68
2021/07/02 02:10:21;;;;;;;5.17;2.60;;;;;;;17.42;100.00;100792.72;5035817;28;20443;-69
2021/07/02 02:12:48;;;;;;;7.07;3.00;;;;;;;17.43;100.00;100786.09;5035665;28;20466;-70
2021/07/02 02:15:15;;;;;;;5.70;3.30;;;;;;;17.42;100.00;100794.66;5035223;28;20470;-69
2021/07/02 02:17:42;;;;;;;6.40;2.90;;;;;;;17.43;100.00;100788.81;5035749;28;20839;-70
2021/07/02 02:20:11;;;;;;;6.80;3.77;;;;;;;17.44;100.00;100792.34;5036287;28;20478;-70
2021/07/02 02:22:38;;;;;;;5.30;2.40;;;;;;;17.43;100.00;100793.50;5035489;28;20470;-70
2021/07/02 02:25:06;;;;;;;5.63;3.20;;;;;;;17.42;100.00;100794.66;5035414;28;20816;-69
2021/07/02 02:27:32;;;;;;;4.17;2.73;;;;;;;17.43;100.00;100790.75;5035403;28;20450;-70
2021/07/02 02:30:00;;;;;;;6.40;3.10;;;;;;;17.46;100.00;100799.09;5034207;28;20450;-70
2021/07/02 02:32:27;;;;;;;2.30;1.87;;;;;;;17.42;100.00;100794.66;5035064;28;20948;-68
2021/07/02 02:34:53;;;;;;;5.73;3.17;;;;;;;17.45;100.00;100804.94;5035253;28;20470;-69
2021/07/02 02:37:20;;;;;;;4.90;3.27;;;;;;;17.45;100.00;100805.72;5035214;28;20482;-68
2021/07/02 02:39:46;;;;;;;2.83;1.90;;;;;;;17.46;100.00;100803.78;5035184;28;20439;-70
2021/07/02 02:42:13;;;;;;;4.30;1.73;;;;;;;17.45;100.00;100813.16;5035169;28;20466;-70
2021/07/02 02:44:39;;;;;;;5.27;2.80;;;;;;;17.44;100.00;100817.78;5035041;28;20462;-69
2021/07/02 02:47:07;;;;;;;4.23;2.80;;;;;;;17.46;100.00;100820.22;5035152;28;20439;-69
2021/07/02 02:49:34;;;;;;;4.13;2.60;;;;;;;17.43;100.00;100818.94;5035049;28;20450;-68
2021/07/02 02:52:00;;;;;;;3.40;2.40;;;;;;;17.44;100.00;100814.25;5034923;28;20454;-69
2021/07/02 02:54:27;;;;;;;8.43;3.50;;;;;;;17.42;100.00;100822.03;5034696;28;20482;-68
2021/07/02 02:57:06;;;;;;;5.50;3.27;;;;;;;17.39;100.00;100823.50;5034830;28;20850;-69
2021/07/02 02:59:33;;;;;;;11.27;3.50;;;;;;;17.35;100.00;100828.06;5034616;28;20905;-69
2021/07/02 03:02:00;;;;;;;5.20;3.40;;;;;;;17.35;100.00;100823.41;5034574;28;20978;-69
2021/07/02 03:04:28;;;;;;;3.77;3.00;;;;;;;17.39;100.00;100818.81;5034648;28;20467;-68
2021/07/02 03:06:55;;;;;;;16.07;2.53;;;;;;;17.39;100.00;100820.75;5034690;28;20446;-69
2021/07/02 03:09:21;;;;;;;6.17;3.10;;;;;;;17.42;100.00;100827.50;5034340;28;20816;-69
2021/07/02 03:11:51;;;;;;;5.07;3.40;;;;;;;17.42;100.00;100814.63;5034590;28;20454;-69
2021/07/02 03:14:18;;;;;;;4.00;2.70;;;;;;;17.43;100.00;100818.16;5034490;28;20471;-67
2021/07/02 03:16:44;;;;;;;6.00;2.60;;;;;;;17.42;100.00;100819.28;5034356;28;20851;-69
2021/07/02 03:19:10;;;;;;;4.70;2.87;;;;;;;17.39;100.00;100818.81;5034475;28;20462;-68
2021/07/02 03:21:38;;;;;;;5.47;3.40;;;;;;;17.38;100.00;100811.75;5034407;28;20851;-70
2021/07/02 03:24:06;;;;;;;5.37;3.57;;;;;;;17.36;100.00;100825.00;5033931;28;20842;-69
2021/07/02 03:26:32;;;;;;;7.10;4.33;;;;;;;17.34;100.00;100831.94;5033991;28;20963;-68
2021/07/02 03:28:58;;;;;;;8.33;3.47;;;;;;;17.32;100.00;100826.03;5034201;28;20861;-69
2021/07/02 03:31:25;;;;;;;3.47;2.70;;;;;;;17.32;100.00;100817.81;5034195;28;20447;-68
2021/07/02 03:33:51;;;;;;;4.70;2.53;;;;;;;17.29;100.00;100824.75;5033799;28;20469;-69
2021/07/02 03:36:18;;;;;;;5.50;2.63;;;;;;;17.30;100.00;100817.34;5033996;28;20483;-69
2021/07/02 03:38:46;;;;;;;3.10;2.60;;;;;;;17.26;100.00;100825.44;5034025;28;20446;-69
2021/07/02 03:41:12;;;;;;;4.97;3.70;;;;;;;17.25;100.00;100823.84;5033780;28;20488;-68
2021/07/02 03:43:39;;;;;;;3.80;2.40;;;;;;;17.22;100.00;100824.53;5033909;28;20435;-69
2021/07/02 03:46:05;;;;;;;7.03;2.57;;;;;;;17.24;100.00;100819.50;5033936;28;20466;-67
2021/07/02 03:48:32;;;;;;;7.70;2.23;;;;;;;17.26;100.00;100828.16;5033930;28;20439;-69
2021/07/02 03:50:58;;;;;;;4.73;2.70;;;;;;;17.31;100.00;100833.44;5033839;28;20443;-69
2021/07/02 03:53:25;;;;;;;4.73;2.57;;;;;;;17.31;100.00;100832.63;5033468;28;20447;-69
2021/07/02 03:55:52;;;;;;;2.93;2.50;;;;;;;17.29;100.00;100841.19;5033443;28;20822;-69
2021/07/02 03:58:19;;;;;;;3.90;2.37;;;;;;;17.27;100.00;100843.47;5033471;28;20967;-69
2021/07/02 04:00:45;;;;;;;4.30;2.30;;;;;;;17.29;100.00;100843.91;5033681;28;20454;-69
2021/07/02 04:03:13;;;;;;;4.50;2.53;;;;;;;17.29;100.00;100846.66;5033762;28;20447;-69
2021/07/02 04:05:44;;;;;;;4.73;2.50;;;;;;;17.29;100.00;100852.13;5033313;28;20509;-69
2021/07/02 04:08:10;;;;;;;5.00;2.20;;;;;;;17.33;100.00;100852.25;5033553;28;20431;-69
2021/07/02 04:10:37;;;;;;;3.80;2.90;;;;;;;17.33;100.00;100855.78;5033605;28;20448;-71
2021/07/02 04:13:05;;;;;;;3.23;2.20;;;;;;;17.33;100.00;100853.06;5033565;28;20447;-69
2021/07/02 04:15:32;;;;;;;6.10;2.90;;;;;;;17.37;100.00;100858.66;5033447;28;20469;-69
2021/07/02 04:17:58;;;;;;;6.37;3.00;;;;;;;17.39;100.00;100857.16;5033661;28;20483;-69
2021/07/02 04:20:25;;;;;;;4.37;2.73;;;;;;;17.42;100.00;100849.41;5033501;28;20458;-67
2021/07/02 04:22:51;;;;;;;10.03;3.00;;;;;;;17.45;100.00;100851.50;5033448;28;20447;-71
2021/07/02 04:25:18;;;;;;;4.03;3.60;;;;;;;17.46;100.00;100850.34;5033464;28;20554;-70
2021/07/02 04:27:44;;;;;;;5.60;3.10;;;;;;;17.45;100.00;100859.72;5033034;28;20810;-70
2021/07/02 04:30:14;;;;;;;5.70;3.40;;;;;;;17.41;100.00;100859.59;5033311;28;20438;-69
2021/07/02 04:32:40;;;;;;;4.60;2.90;;;;;;;17.43;100.00;100856.50;5033541;28;20447;-69
2021/07/02 04:35:09;;;;;;;4.57;2.63;;;;;;;17.43;100.00;100864.72;5033210;28;20463;-68
2021/07/02 04:37:36;;;;;;;6.73;3.23;;;;;;;17.42;100.00;100874.06;5033087;28;20510;-69
2021/07/02 04:40:04;;;;;;;7.57;3.47;;;;;;;17.39;100.00;100873.59;5033243;28;20475;-69
2021/07/02 04:42:30;;;;;;;6.53;4.00;;;;;;;17.43;100.00;100875.66;5032904;28;20963;-68
2021/07/02 04:44:57;;;;;;;4.73;3.00;;;;;;;17.42;100.00;100882.28;5033173;28;20478;-69
2021/07/02 04:47:25;;;;;;;4.13;2.77;;;;;;;17.45;100.00;100879.66;5033146;28;20777;-67
2021/07/02 04:49:51;;;;;;;8.70;4.70;;;;;;;17.39;100.00;100872.78;5032781;28;20933;-70
2021/07/02 04:52:18;;;;;;;3.07;2.00;;;;;;;17.39;100.00;100876.34;5033105;28;20447;-69
2021/07/02 04:54:44;;;;;;;4.50;3.17;;;;;;;17.39;100.00;100868.13;5036556;28;20489;-69
2021/07/02 04:57:11;;;;;;;4.90;3.27;;;;;;;17.39;100.00;100870.06;5037090;28;20569;-68
2021/07/02 04:59:38;;;;;;;5.37;3.13;;;;;;;17.39;100.00;100873.59;5037026;28;20450;-69
2021/07/02 05:02:06;;;;;;;7.70;2.90;;;;;;;17.47;100.00;100880.13;5037283;28;20487;-68
2021/07/02 05:04:34;;;;;;;3.67;2.63;;;;;;;17.53;100.00;100883.44;5036936;28;20567;-68
2021/07/02 05:07:02;;;;;;;3.53;2.37;;;;;;;17.59;100.00;100888.34;5036839;28;20446;-68
2021/07/02 05:09:29;;;;;;;6.40;3.30;;;;;;;17.65;100.00;100880.72;5036852;28;20450;-67
2021/07/02 05:11:55;;;;;;;9.80;4.07;;;;;;;17.67;100.00;100885.88;5036798;28;20443;-69
2021/07/02 05:14:22;;;;;;;4.97;2.33;;;;;;;17.73;100.00;100887.22;5036607;28;20478;-68
2021/07/02 05:16:48;;;;;;;8.03;3.70;;;;;;;17.78;100.00;100887.81;5036664;28;20490;-70
2021/07/02 05:19:15;;;;;;;6.63;3.83;;;;;;;17.86;100.00;100891.59;5036683;28;20447;-69
2021/07/02 05:21:43;;;;;;;7.60;4.17;;;;;;;17.87;100.00;100896.72;5036702;28;20523;-69
2021/07/02 05:24:09;;;;;;;5.47;3.07;;;;;;;17.97;100.00;100902.88;5036773;28;20463;-69
2021/07/02 05:26:36;;;;;;;4.63;3.03;;;;;;;18.08;100.00;100898.56;5036550;28;20454;-68
2021/07/02 05:29:03;;;;;;;6.57;3.80;;;;;;;18.11;100.00;100904.16;5036510;28;20431;-70
2021/07/02 05:31:29;;;;;;;3.93;2.40;;;;;;;18.07;100.00;100900.50;5036528;28;20487;-70
2021/07/02 05:33:55;;;;;;;6.30;3.27;;;;;;;17.98;100.00;100896.28;5036374;28;20462;-70
2021/07/02 05:36:22;;;;;;;5.20;2.90;;;;;;;18.04;100.00;100908.63;5036330;28;20447;-69
2021/07/02 05:38:50;;;;;;;5.37;2.90;;;;;;;18.11;100.00;100908.84;5036332;28;20454;-71
2021/07/02 05:41:16;;;;;;;5.57;3.20;;;;;;;18.21;100.00;100907.56;5036454;28;20450;-70
2021/07/02 05:43:43;;;;;;;11.10;4.70;;;;;;;18.23;100.00;100917.03;5036171;28;20458;-72
2021/07/02 05:46:09;;;;;;;5.50;3.70;;;;;;;18.28;100.00;100914.09;5036280;28;20439;-67
2021/07/02 05:48:36;;;;;;;4.40;2.63;;;;;;;18.28;100.00;100911.34;5036346;28;20473;-72
2021/07/02 05:51:02;;;;;;;6.27;3.50;;;;;;;18.42;100.00;100902.75;5036138;28;20526;-71
2021/07/02 05:53:29;;;;;;;4.67;2.87;;;;;;;18.55;100.00;100901.56;5035682;28;20474;-68
2021/07/02 05:55:56;;;;;;;5.27;3.53;;;;;;;18.67;100.00;100914.44;5035829;28;20553;-68
2021/07/02 05:58:23;;;;;;;8.60;4.13;;;;;;;18.73;100.00;100924.06;5035982;28;20482;-70
2021/07/02 06:00:49;;;;;;;5.60;3.23;;;;;;;18.79;100.00;100930.09;5035931;28;20470;-71
2021/07/02 06:03:16;;;;;;;5.13;2.97;;;;;;;18.76;100.00;100928.84;5035562;28;20450;-70
2021/07/02 06:05:42;;;;;;;5.60;3.47;;;;;;;18.82;100.00;100927.47;5035628;28;20456;-71
2021/07/02 06:08:09;;;;;;;12.00;4.30;;;;;;;18.92;100.00;100930.88;5035845;28;20439;-70
2021/07/02 06:10:35;;;;;;;5.97;4.07;;;;;;;18.95;100.00;100921.91;5035515;28;20966;-71
2021/07/02 06:13:03;;;;;;;3.43;2.60;;;;;;;18.90;100.00;100932.03;5035815;28;20443;-71
2021/07/02 06:15:31;;;;;;;4.37;2.60;;;;;;;18.97;100.00;100925.13;5035647;28;20459;-70
2021/07/02 06:18:06;;;;;;;5.67;3.50;;;;;;;19.12;100.00;100927.09;5035224;28;20490;-70
2021/07/02 06:20:32;;;;;;;3.90;2.77;;;;;;;19.24;100.00;100929.78;5035637;28;20424;-70
2021/07/02 06:22:59;;;;;;;4.97;3.10;;;;;;;19.33;100.00;100927.69;5035546;28;20464;-70
2021/07/02 06:25:25;;;;;;;6.77;2.70;;;;;;;19.38;100.00;100938.41;5035426;28;20459;-70
2021/07/02 06:27:52;;;;;;;3.90;2.37;;;;;;;19.37;100.00;100928.59;5035501;28;20454;-70
2021/07/02 06:30:19;;;;;;;4.37;2.90;;;;;;;19.38;100.00;100935.66;5035475;28;20450;-70
2021/07/02 06:32:46;;;;;;;3.50;2.70;;;;;;;19.31;100.00;100935.50;5035428;28;20442;-71
2021/07/02 06:35:13;;;;;;;4.70;3.10;;;;;;;19.26;100.00;100937.72;5035323;28;20829;-70
2021/07/02 06:37:39;;;;;;;6.07;3.40;;;;;;;19.24;100.00;100937.25;5035375;28;20487;-72
2021/07/02 06:40:07;;;;;;;6.70;4.00;;;;;;;19.22;100.00;100934.06;5034995;28;20972;-70
2021/07/02 06:42:34;;;;;;;6.17;3.77;;;;;;;19.30;100.00;100931.16;5035266;28;20435;-72
2021/07/02 06:45:00;;;;;;;5.93;2.60;;;;;;;19.38;100.00;100927.44;5035056;28;20459;-73
2021/07/02 06:47:28;;;;;;;6.20;2.80;;;;;;;19.42;100.00;100930.28;5034943;28;20456;-73
2021/07/02 06:49:54;;;;;;;2.53;1.63;;;;;;;19.40;100.00;100938.88;5035051;28;20450;-72
2021/07/02 06:52:21;;;;;;;5.37;2.40;;;;;;;19.42;99.96;100935.78;5035147;28;20443;-72
2021/07/02 06:54:47;;;;;;;3.93;2.43;;;;;;;19.48;100.00;100941.78;5034725;28;20478;-74
2021/07/02 06:57:15;;;;;;;4.90;2.93;;;;;;;19.39;99.39;100948.28;5034843;28;20483;-71
2021/07/02 06:59:41;;;;;;;5.67;2.73;;;;;;;19.27;99.47;100942.84;5034954;28;20446;-72
2021/07/02 07:02:10;;;;;;;2.93;2.50;;;;;;;19.14;98.02;100950.34;5034358;28;20455;-68
2021/07/02 07:04:39;;;;;;;4.07;2.70;;;;;;;19.11;98.76;100953.78;5027893;28;20498;-68
2021/07/02 07:07:07;;;;;;;3.83;2.80;;;;;;;19.13;99.02;100958.94;5024788;28;20953;-65
2021/07/02 07:09:33;;;;;;;3.17;2.20;;;;;;;19.07;98.45;100966.59;5034156;28;20442;-68
2021/07/02 07:12:01;;;;;;;8.37;2.47;;;;;;;18.94;98.42;100958.75;5034264;28;20447;-68
2021/07/02 07:14:28;;;;;;;4.13;2.90;;;;;;;18.96;99.21;100961.97;5034458;28;20467;-69
2021/07/02 07:16:54;;;;;;;7.27;2.00;;;;;;;18.88;99.14;100950.78;5033688;28;20462;-68
2021/07/02 07:19:24;;;;;;;2.90;2.27;;;;;;;19.00;98.95;100966.41;5034380;28;20442;-67
2021/07/02 07:21:51;;;;;;;3.03;2.37;;;;;;;19.08;96.24;100964.66;5034323;28;20479;-69
2021/07/02 07:24:18;;;;;;;5.23;2.47;;;;;;;19.22;96.76;100961.53;5034237;28;20478;-68
2021/07/02 07:26:44;;;;;;;3.67;2.17;;;;;;;19.24;93.59;100960.00;5034285;28;20450;-68
2021/07/02 07:29:11;;;;;;;4.00;2.70;;;;;;;19.36;95.46;100964.66;5034190;28;20443;-70
2021/07/02 07:31:38;;;;;;;5.03;2.07;;;;;;;19.38;93.24;100965.09;5034366;28;20443;-72
2021/07/02 07:34:04;;;;;;;4.87;1.83;;;;;;;19.50;94.98;100967.00;5034449;28;20517;-68
2021/07/02 07:36:32;;;;;;;6.03;2.70;;;;;;;19.63;91.58;100971.28;5034148;28;20447;-68
2021/07/02 07:38:59;;;;;;;3.10;1.90;;;;;;;19.83;91.81;100977.69;5034016;28;20497;-67
2021/07/02 07:41:26;;;;;;;6.40;2.63;;;;;;;19.93;90.45;100974.41;5034039;28;20447;-68
2021/07/02 07:43:52;;;;;;;4.20;2.60;;;;;;;20.04;88.55;100975.47;5034146;28;20478;-68
2021/07/02 07:46:20;;;;;;;5.57;2.97;;;;;;;20.15;91.38;100981.25;5033853;28;20455;-67
2021/07/02 07:48:46;;;;;;;5.43;2.80;;;;;;;20.16;92.28;100982.84;5033797;28;20895;-69
2021/07/02 07:51:17;;;;;;;5.20;2.53;;;;;;;20.09;93.45;100980.69;5033867;28;20447;-68
2021/07/02 07:53:49;;;;;;;3.43;2.80;;;;;;;20.17;95.01;100981.66;5034679;28;20457;-64
2021/07/02 07:56:17;;;;;;;4.87;3.30;;;;;;;20.30;93.22;100983.16;5033263;28;20458;-69
2021/07/02 07:58:44;;;;;;;7.57;3.07;;;;;;;20.37;89.84;100988.06;5033502;28;20490;-68
2021/07/02 08:01:10;;;;;;;4.07;2.63;;;;;;;20.31;91.67;100990.25;5033277;28;20828;-68
2021/07/02 08:03:37;;;;;;;8.53;2.73;;;;;;;20.23;91.37;100985.75;5033455;28;20455;-69
2021/07/02 08:06:04;;;;;;;3.50;2.33;;;;;;;20.02;91.13;100994.28;5033496;28;20443;-68
2021/07/02 08:08:30;;;;;;;3.60;2.43;;;;;;;19.87;92.52;100998.59;5033078;28;20967;-68
2021/07/02 08:10:57;;;;;;;2.30;2.07;;;;;;;19.84;93.42;100987.53;5033626;28;20439;-68
2021/07/02 08:13:28;;;;;;;15.40;2.50;;;;;;;19.87;92.90;100990.38;5033381;28;20443;-67
2021/07/02 08:15:54;;;;;;;6.50;3.20;;;;;;;19.92;91.71;100997.53;5033277;28;20431;-67
2021/07/02 08:18:21;;;;;;;3.87;2.40;;;;;;;19.86;90.83;100994.28;5032768;28;20490;-68
2021/07/02 08:20:47;;;;;;;4.60;2.33;;;;;;;19.94;91.91;100994.47;5032963;28;20811;-67
2021/07/02 08:23:14;;;;;;;5.57;2.87;;;;;;;19.99;90.08;100994.19;5032916;28;20816;-69
2021/07/02 08:25:40;;;;;;;4.47;2.63;;;;;;;19.97;89.90;100994.56;5032754;28;20972;-69
2021/07/02 08:30:53;;;;;;;3.27;2.07;;;;;;;20.15;89.13;100986.75;5032921;28;20410;-68
2021/07/02 08:33:20;;;;;;;2.90;2.10;;;;;;;20.06;90.01;100988.88;5033050;28;20450;-68
2021/07/02 08:35:48;;;;;;;4.03;2.07;;;;;;;20.06;89.11;100984.19;5032936;28;20473;-69
2021/07/02 08:38:14;;;;;;;2.63;2.33;;;;;;;20.21;90.85;100984.50;5032925;28;20482;-69
2021/07/02 08:40:41;;;;;;;4.27;2.40;;;;;;;20.30;91.02;100999.69;5033125;28;20447;-67
2021/07/02 08:43:08;;;;;;;4.40;2.87;;;;;;;20.26;87.93;100992.50;5033086;28;20443;-67
2021/07/02 08:45:35;;;;;;;4.73;2.37;;;;;;;20.28;85.83;100987.44;5032886;28;20454;-67
2021/07/02 08:48:06;;;;;;;4.10;2.43;;;;;;;20.32;86.39;100986.38;5032738;28;20822;-68
2021/07/02 08:50:33;;;;;;;4.47;2.70;;;;;;;20.40;84.55;100984.56;5033110;28;20427;-67
2021/07/02 08:53:00;;;;;;;3.47;2.10;;;;;;;20.57;84.57;100986.16;5033028;28;20442;-68
2021/07/02 08:55:27;;;;;;;6.13;3.27;;;;;;;20.65;85.03;100994.22;5032823;28;20485;-68
2021/07/02 08:57:53;;;;;;;2.73;1.87;;;;;;;20.73;83.63;100992.44;5032912;28;20498;-68
2021/07/02 09:00:20;;;;;;;3.57;2.63;;;;;;;20.92;83.04;100981.44;5032623;28;20446;-68
2021/07/02 09:02:47;;;;;;;5.10;3.03;;;;;;;21.13;82.70;100988.53;5032906;28;20443;-68
2021/07/02 09:05:36;;;;;;;3.23;2.20;;;;;;;21.20;80.47;100985.91;5032835;28;20455;-68
2021/07/02 09:08:11;;;;;;;4.40;2.43;;;;;;;21.15;80.47;100989.75;5033154;28;20432;-68
2021/07/02 09:10:38;;;;;;;4.27;2.80;;;;;;;21.13;81.37;101000.38;5032957;28;20415;-68
2021/07/02 09:13:05;;;;;;;3.50;2.00;;;;;;;21.12;81.15;100990.50;5032915;28;20443;-67
2021/07/02 09:15:32;;;;;;;2.17;1.80;;;;;;;21.14;79.70;100990.94;5032772;28;20462;-67
2021/07/02 09:18:00;;;;;;;2.00;1.73;;;;;;;21.26;82.57;100990.00;5033007;28;20482;-68
2021/07/02 09:20:29;;;;;;;4.20;2.60;;;;;;;21.32;82.68;100988.56;5032786;28;20454;-68
2021/07/02 09:23:00;;;;;;;4.37;2.47;;;;;;;21.34;82.05;100996.47;5032364;28;20941;-67
2021/07/02 09:25:29;;;;;;;5.70;2.27;;;;;;;21.33;80.90;101003.94;5032767;28;20499;-67
2021/07/02 09:28:00;;;;;;;3.40;2.67;;;;;;;21.29;79.36;100988.44;5032453;28;20944;-69
2021/07/02 09:30:29;;;;;;;4.50;2.97;;;;;;;21.32;80.26;100988.56;5033072;28;20431;-69
2021/07/02 09:32:58;;;;;;;3.17;2.33;;;;;;;21.39;79.76;100985.94;5032783;28;20786;-68
2021/07/02 09:35:31;;;;;;;4.60;2.77;;;;;;;21.59;80.03;100996.94;5032378;28;20448;-67
2021/07/02 09:38:00;;;;;;;3.70;2.17;;;;;;;21.77;77.00;100992.53;5032656;28;20533;-68
2021/07/02 09:40:29;;;;;;;4.77;2.83;;;;;;;21.89;78.37;100997.88;5035081;28;20439;-68
2021/07/02 09:43:01;;;;;;;5.17;2.43;;;;;;;21.87;77.90;100994.69;5036275;28;20447;-68
2021/07/02 09:45:28;;;;;;;3.27;2.20;;;;;;;21.70;78.11;100997.94;5036185;28;20466;-68
2021/07/02 09:47:56;;;;;;;5.20;2.50;;;;;;;21.63;76.26;100992.28;5036256;28;20439;-68
2021/07/02 09:50:27;;;;;;;2.67;2.07;;;;;;;21.67;75.87;100987.63;5036147;28;20543;-68
2021/07/02 09:52:56;;;;;;;3.03;2.00;;;;;;;21.78;76.46;100987.81;5036425;28;20427;-68
2021/07/02 09:55:25;;;;;;;3.47;2.03;;;;;;;21.82;74.16;100999.69;5035820;28;20479;-68
2021/07/02 09:58:02;;;;;;;3.70;2.30;;;;;;;22.02;74.44;101003.22;5035982;28;20451;-67
2021/07/02 10:00:28;;;;;;;4.60;2.17;;;;;;;22.15;71.77;100996.38;5035980;28;20438;-68
2021/07/02 10:02:56;;;;;;;5.00;2.43;;;;;;;22.12;71.45;100997.88;5035955;28;20447;-67
2021/07/02 10:05:24;;;;;;;6.43;2.17;;;;;;;21.96;72.68;101004.66;5035499;28;21000;-68
2021/07/02 10:07:58;;;;;;;6.30;2.80;;;;;;;21.89;73.23;101000.63;5035817;28;20446;-67
2021/07/02 10:10:27;;;;;;;2.77;1.70;;;;;;;22.02;74.97;100992.97;5035544;28;20816;-66
2021/07/02 10:12:55;;;;;;;3.33;2.07;;;;;;;22.11;74.91;100998.22;5035433;28;20438;-68
2021/07/02 10:15:22;;;;;;;2.87;2.53;;;;;;;22.27;70.88;100998.09;5035645;28;20879;-67
2021/07/02 10:17:50;;;;;;;3.40;2.10;;;;;;;22.41;72.67;100999.16;5035246;28;20443;-67
2021/07/02 10:20:17;;;;;;;2.90;1.90;;;;;;;22.37;68.62;100998.28;5035570;28;20474;-68
2021/07/02 10:22:46;;;;;;;3.30;2.00;;;;;;;22.48;69.38;101000.41;5035528;28;20450;-67
2021/07/02 10:25:17;;;;;;;2.43;2.20;;;;;;;22.67;71.25;100990.06;5034423;28;20996;-69
2021/07/02 10:27:45;;;;;;;2.80;2.00;;;;;;;22.65;68.33;101000.66;5032352;28;20467;-68
2021/07/02 10:30:12;;;;;;;3.70;1.93;;;;;;;22.61;66.69;101004.53;5034229;28;20968;-64
2021/07/02 10:32:39;;;;;;;3.63;2.00;;;;;;;22.69;69.42;101009.00;5034421;28;20451;-67
2021/07/02 10:35:07;;;;;;;2.80;1.73;;;;;;;22.87;69.89;100998.19;5033565;28;21002;-70
2021/07/02 10:37:34;;;;;;;3.20;2.10;;;;;;;22.90;66.09;100998.28;5034690;28;20470;-66
2021/07/02 10:40:00;;;;;;;2.93;2.10;;;;;;;22.93;67.71;100999.47;5034149;28;20486;-66
2021/07/02 10:42:29;;;;;;;2.20;2.00;;;;;;;23.11;65.25;101005.25;5034632;28;20526;-66
2021/07/02 10:45:11;;;;;;;2.90;1.90;;;;;;;23.21;64.75;101001.81;5033533;28;20471;-66
2021/07/02 10:47:52;;;;;;;2.70;2.27;;;;;;;23.34;64.52;100997.63;5033749;28;20810;-66
2021/07/02 10:50:39;;;;;;;2.63;2.00;;;;;;;23.56;64.60;101000.63;5033591;28;20459;-68
2021/07/02 10:53:30;;;;;;;3.30;2.07;;;;;;;23.73;64.14;100985.38;5034610;28;20800;-67
2021/07/02 10:55:59;;;;;;;3.47;1.97;;;;;;;23.70;63.80;101000.78;5033942;28;20848;-67
2021/07/02 10:58:52;;;;;;;3.70;3.00;;;;;;;23.77;63.65;101000.84;5034485;28;20553;-67
2021/07/02 11:01:20;;;;;;;2.67;1.63;;;;;;;23.89;63.35;101008.88;5034136;28;20935;-68
2021/07/02 11:03:48;;;;;;;5.33;2.47;;;;;;;23.91;63.62;101005.75;5034549;28;20478;-67
2021/07/02 11:06:40;;;;;;;2.73;2.33;;;;;;;23.85;60.80;101004.47;5034244;28;20490;-68
2021/07/02 11:09:08;;;;;;;3.10;2.13;;;;;;;23.99;61.87;101003.81;5034191;28;20911;-68
2021/07/02 11:12:09;;;;;;;2.70;2.03;;;;;;;24.22;62.20;101004.41;5034111;28;20477;-67
2021/07/02 11:15:10;;;;;;;3.30;1.83;;;;;;;24.21;59.70;101008.34;5017611;28;20483;-67
2021/07/02 11:17:39;;;;;;;4.27;2.50;;;;;;;23.88;62.06;101012.81;5004560;28;20973;-68
2021/07/02 11:20:28;;;;;;;2.80;2.00;;;;;;;24.19;61.30;101009.91;5014041;28;20488;-68
2021/07/02 11:23:13;;;;;;;3.97;2.20;;;;;;;24.76;59.85;101010.34;5013802;28;20948;-68
2021/07/02 11:25:46;;;;;;;4.23;2.43;;;;;;;24.90;60.31;100999.31;5014483;28;20464;-67